createdAt,value
2018-03-28T00:00:55.129Z,88.50
2018-03-28T00:04:18.462Z,88.20
2018-03-28T00:07:41.779Z,88.90
2018-03-28T00:11:05.464Z,90.00
2018-03-28T00:14:28.783Z,89.90
2018-03-28T00:17:52.114Z,90.00
2018-03-28T00:21:15.396Z,90.10
2018-03-28T00:24:38.729Z,90.50
2018-03-28T00:28:02.823Z,90.50
2018-03-28T00:31:26.104Z,90.50
2018-03-28T00:34:49.415Z,90.30
2018-03-28T00:38:12.766Z,90.70
2018-03-28T00:41:36.089Z,90.50
2018-03-28T00:45:00.131Z,90.50
2018-03-28T00:48:23.395Z,90.40
2018-03-28T00:51:47.491Z,90.90
2018-03-28T00:55:10.849Z,90.90
2018-03-28T00:58:34.126Z,90.50
2018-03-28T01:01:57.418Z,90.80
2018-03-28T01:05:20.696Z,90.50
2018-03-28T01:08:43.992Z,90.10
2018-03-28T01:12:07.280Z,90.30
2018-03-28T01:15:30.557Z,89.50
2018-03-28T01:18:54.631Z,89.60
2018-03-28T01:22:18.787Z,89.60
2018-03-28T01:25:42.115Z,89.60
2018-03-28T01:29:05.467Z,88.80
2018-03-28T01:32:28.886Z,90.10
2018-03-28T01:35:52.171Z,90.10
2018-03-28T01:39:15.531Z,90.00
2018-03-28T01:42:38.885Z,88.70
2018-03-28T01:46:02.240Z,89.10
2018-03-28T01:49:25.509Z,89.50
2018-03-28T01:52:48.793Z,90.10
2018-03-28T01:56:12.109Z,90.00
2018-03-28T01:59:35.469Z,88.00
2018-03-28T02:02:58.803Z,88.90
2018-03-28T02:06:22.066Z,87.90
2018-03-28T02:09:45.377Z,88.20
2018-03-28T02:13:08.699Z,88.80
2018-03-28T02:16:32.038Z,88.20
2018-03-28T02:19:55.338Z,87.90
2018-03-28T02:23:19.441Z,88.00
2018-03-28T02:26:42.751Z,87.90
2018-03-28T02:30:06.077Z,88.30
2018-03-28T02:33:29.386Z,88.10
2018-03-28T02:36:52.680Z,88.70
2018-03-28T02:40:15.998Z,88.90
2018-03-28T02:43:39.302Z,90.30
2018-03-28T02:47:02.593Z,90.20
2018-03-28T02:50:25.889Z,90.00
2018-03-28T02:53:49.220Z,90.40
2018-03-28T02:57:12.590Z,90.00
2018-03-28T03:00:35.845Z,90.30
2018-03-28T03:04:00.058Z,90.70
2018-03-28T03:07:24.126Z,90.70
2018-03-28T03:10:47.458Z,90.60
2018-03-28T03:14:10.751Z,90.50
2018-03-28T03:17:34.031Z,90.40
2018-03-28T03:20:57.462Z,90.60
2018-03-28T03:24:20.816Z,90.80
2018-03-28T03:27:44.106Z,90.70
2018-03-28T03:31:07.476Z,90.40
2018-03-28T03:34:30.841Z,90.60
2018-03-28T03:37:54.219Z,90.60
2018-03-28T03:41:18.250Z,90.70
2018-03-28T03:44:41.561Z,90.70
2018-03-28T03:48:04.930Z,90.70
2018-03-28T03:51:28.190Z,90.70
2018-03-28T03:54:52.335Z,90.70
2018-03-28T03:58:15.651Z,90.70
2018-03-28T04:01:38.953Z,90.90
2018-03-28T04:05:03.007Z,90.70
2018-03-28T04:08:26.363Z,90.70
2018-03-28T04:11:49.697Z,91.10
2018-03-28T04:15:13.002Z,90.90
2018-03-28T04:18:36.378Z,91.30
2018-03-28T04:21:59.718Z,91.00
2018-03-28T04:25:23.016Z,91.10
2018-03-28T04:28:46.322Z,90.90
2018-03-28T04:32:09.618Z,91.30
2018-03-28T04:35:32.935Z,91.40
2018-03-28T04:38:56.277Z,91.90
2018-03-28T04:42:19.546Z,92.70
2018-03-28T04:45:42.824Z,92.80
2018-03-28T04:49:06.136Z,92.80
2018-03-28T04:52:29.478Z,92.80
2018-03-28T04:55:52.961Z,92.90
2018-03-28T04:59:17.064Z,93.30
2018-03-28T05:02:40.367Z,92.90
2018-03-28T05:06:03.689Z,92.80
2018-03-28T05:09:27.787Z,92.30
2018-03-28T05:12:51.063Z,92.30
2018-03-28T05:16:14.348Z,92.50
2018-03-28T05:19:37.763Z,92.40
2018-03-28T05:23:01.877Z,91.70
2018-03-28T05:26:25.154Z,91.70
2018-03-28T05:29:48.424Z,91.80
2018-03-28T05:33:11.750Z,91.10
2018-03-28T05:36:35.507Z,91.40
2018-03-28T05:39:58.814Z,91.40
2018-03-28T05:43:22.174Z,91.20
2018-03-28T05:46:45.506Z,91.40
2018-03-28T05:50:08.782Z,91.40
2018-03-28T05:53:32.084Z,90.80
2018-03-28T05:56:55.372Z,90.70
2018-03-28T06:00:18.661Z,91.10
2018-03-28T06:03:42.034Z,91.00
2018-03-28T06:07:05.402Z,90.90
2018-03-28T06:10:29.460Z,90.90
2018-03-28T06:13:52.854Z,90.80
2018-03-28T06:17:16.917Z,91.30
2018-03-28T06:20:40.326Z,91.30
2018-03-28T06:24:03.594Z,91.50
2018-03-28T06:27:26.910Z,91.20
2018-03-28T06:30:50.255Z,91.30
2018-03-28T06:34:14.364Z,91.80
2018-03-28T06:37:38.450Z,91.80
2018-03-28T06:41:01.835Z,91.40
2018-03-28T06:44:25.171Z,91.00
2018-03-28T06:47:49.296Z,90.70
2018-03-28T06:51:12.556Z,90.70
2018-03-28T06:54:35.850Z,90.30
2018-03-28T06:57:59.150Z,90.10
2018-03-28T07:01:22.544Z,90.40
2018-03-28T07:04:46.648Z,90.90
2018-03-28T07:08:09.935Z,90.90
2018-03-28T07:11:33.240Z,91.00
2018-03-28T07:14:56.620Z,90.70
2018-03-28T07:18:20.676Z,90.80
2018-03-28T07:21:44.016Z,90.70
2018-03-28T07:25:07.297Z,90.90
2018-03-28T07:28:30.606Z,90.80
2018-03-28T07:31:53.940Z,90.90
2018-03-28T07:35:17.218Z,91.20
2018-03-28T07:38:40.518Z,90.70
2018-03-28T07:42:03.845Z,90.80
2018-03-28T07:45:27.977Z,90.90
2018-03-28T07:48:51.359Z,90.50
2018-03-28T07:52:15.465Z,89.70
2018-03-28T07:55:38.750Z,89.60
2018-03-28T07:59:02.054Z,89.30
2018-03-28T08:02:25.382Z,89.60
2018-03-28T08:05:48.692Z,90.00
2018-03-28T08:09:12.119Z,89.40
2018-03-28T08:12:35.755Z,89.10
2018-03-28T08:15:58.602Z,89.20
2018-03-28T08:19:21.899Z,88.50
2018-03-28T08:22:45.192Z,88.50
2018-03-28T08:26:08.621Z,88.90
2018-03-28T08:29:31.463Z,88.90
2018-03-28T08:32:54.833Z,87.80
2018-03-28T08:36:18.180Z,88.20
2018-03-28T08:39:41.531Z,87.10
2018-03-28T08:43:04.455Z,87.40
2018-03-28T08:46:27.304Z,86.00
2018-03-28T08:49:50.149Z,86.10
2018-03-28T08:53:12.982Z,86.10
2018-03-28T08:56:35.809Z,85.40
2018-03-28T08:59:59.413Z,82.50
2018-03-28T09:03:22.264Z,82.50
2018-03-28T09:06:45.095Z,83.40
2018-03-28T09:10:07.913Z,83.20
2018-03-28T09:13:30.754Z,83.50
2018-03-28T09:16:53.590Z,83.30
2018-03-28T09:20:16.505Z,82.90
2018-03-28T09:23:39.327Z,83.40
2018-03-28T09:27:02.169Z,82.80
2018-03-28T09:30:25.924Z,82.80
2018-03-28T09:33:49.826Z,82.80
2018-03-28T09:37:13.426Z,82.10
2018-03-28T09:40:36.239Z,81.90
2018-03-28T09:43:59.876Z,82.00
2018-03-28T09:47:23.492Z,80.10
2018-03-28T09:50:46.337Z,80.20
2018-03-28T09:54:09.360Z,81.40
2018-03-28T09:57:32.667Z,80.80
2018-03-28T10:01:02.105Z,78.00
2018-03-28T10:04:26.799Z,78.00
2018-03-28T10:07:50.629Z,78.00
2018-03-28T10:11:13.456Z,78.00
2018-03-28T10:14:36.306Z,76.90
2018-03-28T10:17:59.165Z,77.00
2018-03-28T10:21:22.015Z,76.10
2018-03-28T10:24:44.859Z,76.10
2018-03-28T10:28:07.700Z,76.40
2018-03-28T10:31:30.533Z,75.80
2018-03-28T10:34:54.130Z,73.60
2018-03-28T10:38:16.981Z,73.60
2018-03-28T10:41:40.251Z,74.50
2018-03-28T10:45:03.083Z,74.60
2018-03-28T10:48:26.688Z,73.80
2018-03-28T10:51:49.570Z,73.80
2018-03-28T10:55:13.282Z,73.40
2018-03-28T10:58:36.127Z,72.50
2018-03-28T11:01:58.975Z,72.70
2018-03-28T11:05:21.824Z,72.70
2018-03-28T11:08:45.110Z,72.10
2018-03-28T11:12:08.398Z,71.50
2018-03-28T11:15:31.276Z,71.50
2018-03-28T11:18:54.118Z,71.30
2018-03-28T11:22:17.747Z,71.40
2018-03-28T11:25:41.367Z,73.10
2018-03-28T11:29:04.642Z,73.00
2018-03-28T11:32:28.338Z,73.70
2018-03-28T11:35:54.624Z,74.00
2018-03-28T11:39:17.914Z,73.90
2018-03-28T11:42:40.743Z,74.60
2018-03-28T11:46:04.798Z,75.80
2018-03-28T11:49:28.217Z,75.90
2018-03-28T11:52:51.574Z,76.40
2018-03-28T11:56:14.816Z,76.00
2018-03-28T11:59:38.857Z,75.80
2018-03-28T12:03:02.141Z,75.80
2018-03-28T12:06:25.409Z,75.90
2018-03-28T12:09:48.677Z,76.00
2018-03-28T12:13:12.716Z,75.30
2018-03-28T12:16:36.012Z,75.20
2018-03-28T12:19:58.836Z,74.70
2018-03-28T12:23:26.595Z,74.70
2018-03-28T12:26:49.426Z,74.60
2018-03-28T12:30:12.748Z,75.20
2018-03-28T12:33:36.789Z,75.20
2018-03-28T12:37:00.918Z,75.20
2018-03-28T12:40:24.972Z,75.60
2018-03-28T12:43:48.248Z,75.60
2018-03-28T12:47:11.065Z,77.10
2018-03-28T12:50:34.694Z,75.60
2018-03-28T12:53:58.046Z,75.60
2018-03-28T12:57:22.410Z,75.70
2018-03-28T13:00:45.336Z,75.40
2018-03-28T13:04:08.623Z,76.30
2018-03-28T13:07:32.274Z,77.20
2018-03-28T13:10:55.100Z,77.20
2018-03-28T13:14:18.420Z,76.60
2018-03-28T13:17:42.471Z,76.60
2018-03-28T13:21:05.745Z,76.50
2018-03-28T13:24:29.018Z,77.30
2018-03-28T13:27:52.307Z,77.70
2018-03-28T13:31:16.631Z,77.20
2018-03-28T13:34:39.469Z,77.20
2018-03-28T13:38:02.732Z,77.40
2018-03-28T13:41:26.018Z,78.00
2018-03-28T13:44:50.091Z,78.20
2018-03-28T13:48:14.156Z,78.00
2018-03-28T13:51:38.202Z,80.40
2018-03-28T13:55:01.497Z,79.80
2018-03-28T13:58:24.836Z,79.00
2018-03-28T14:01:48.918Z,79.10
2018-03-28T14:05:12.191Z,79.00
2018-03-28T14:08:36.272Z,79.60
2018-03-28T14:12:00.326Z,79.30
2018-03-28T14:15:23.640Z,79.50
2018-03-28T14:18:46.472Z,79.10
2018-03-28T14:22:09.989Z,79.10
2018-03-28T14:25:33.294Z,81.00
2018-03-28T14:28:56.572Z,80.60
2018-03-28T14:32:20.610Z,80.20
2018-03-28T14:35:43.900Z,80.20
2018-03-28T14:39:07.208Z,79.00
2018-03-28T14:42:30.499Z,80.70
2018-03-28T14:45:54.539Z,81.60
2018-03-28T14:49:17.815Z,81.20
2018-03-28T14:52:41.137Z,81.10
2018-03-28T14:56:04.582Z,78.70
2018-03-28T14:59:28.622Z,80.30
2018-03-28T15:02:52.228Z,80.30
2018-03-28T15:06:15.510Z,79.30
2018-03-28T15:09:38.804Z,80.30
2018-03-28T15:13:02.085Z,79.10
2018-03-28T15:16:25.395Z,78.80
2018-03-28T15:19:49.489Z,77.60
2018-03-28T15:23:12.771Z,77.60
2018-03-28T15:26:35.658Z,78.40
2018-03-28T15:33:47.393Z,76.80
2018-03-28T15:37:11.551Z,78.00
2018-03-28T15:40:38.844Z,76.60
2018-03-28T15:44:02.961Z,78.50
2018-03-28T15:47:26.526Z,78.40
2018-03-28T15:50:51.251Z,77.70
2018-03-28T15:54:14.538Z,77.60
2018-03-28T15:57:38.062Z,76.50
2018-03-28T16:01:01.416Z,76.90
2018-03-28T16:04:27.723Z,77.80
2018-03-28T16:07:51.828Z,80.10
2018-03-28T16:11:15.091Z,80.00
2018-03-28T16:14:39.211Z,81.60
2018-03-28T16:18:02.491Z,81.60
2018-03-28T16:21:25.834Z,79.20
2018-03-28T16:24:49.138Z,79.60
2018-03-28T16:28:12.487Z,79.70
2018-03-28T16:31:35.836Z,79.20
2018-03-28T16:34:59.108Z,78.90
2018-03-28T16:38:22.806Z,75.40
2018-03-28T16:41:45.689Z,75.40
2018-03-28T16:45:08.600Z,74.50
2018-03-28T16:48:31.497Z,75.20
2018-03-28T16:51:54.481Z,72.70
2018-03-28T16:55:18.498Z,72.30
2018-03-28T16:58:42.060Z,71.80
2018-03-28T17:02:05.545Z,71.80
2018-03-28T17:05:28.943Z,71.10
2018-03-28T17:08:55.340Z,69.50
2018-03-28T17:12:18.850Z,69.50
2018-03-28T17:15:43.002Z,71.20
2018-03-28T17:19:06.315Z,70.60
2018-03-28T17:22:29.622Z,69.40
2018-03-28T17:25:52.495Z,70.20
2018-03-28T17:29:17.355Z,70.20
2018-03-28T17:32:40.751Z,70.20
2018-03-28T17:36:04.848Z,69.80
2018-03-28T17:39:28.231Z,69.80
2018-03-28T17:42:51.578Z,70.10
2018-03-28T17:46:14.537Z,70.60
2018-03-28T17:49:38.508Z,71.40
2018-03-28T17:53:01.875Z,71.40
2018-03-28T17:56:25.952Z,72.00
2018-03-28T17:59:49.324Z,72.00
2018-03-28T18:03:12.671Z,72.80
2018-03-28T18:06:36.026Z,72.30
2018-03-28T18:09:59.376Z,73.40
2018-03-28T18:13:22.748Z,73.80
2018-03-28T18:16:46.115Z,74.80
2018-03-28T18:20:10.184Z,77.20
2018-03-28T18:23:33.571Z,77.10
2018-03-28T18:26:57.676Z,79.60
2018-03-28T18:30:21.077Z,79.50
2018-03-28T18:33:45.127Z,82.00
2018-03-28T18:37:08.497Z,81.90
2018-03-28T18:40:31.987Z,83.30
2018-03-28T18:43:55.205Z,83.70
2018-03-28T18:47:18.598Z,84.20
2018-03-28T18:50:42.712Z,86.00
2018-03-28T18:54:05.993Z,85.90
2018-03-28T18:57:29.270Z,86.90
2018-03-28T19:00:52.569Z,87.10
2018-03-28T19:04:15.937Z,87.20
2018-03-28T19:07:38.800Z,87.70
2018-03-28T19:11:01.719Z,88.20
2018-03-28T19:14:26.208Z,88.60
2018-03-28T19:17:49.072Z,88.50
2018-03-28T19:21:11.951Z,89.90
2018-03-28T19:24:35.568Z,89.50
2018-03-28T19:27:58.442Z,89.40
2018-03-28T19:31:22.100Z,88.70
2018-03-28T19:34:45.722Z,88.90
2018-03-28T19:38:08.811Z,88.80
2018-03-28T19:41:32.423Z,90.40
2018-03-28T19:44:55.346Z,90.30
2018-03-28T19:48:18.222Z,90.40
2018-03-28T19:51:41.846Z,90.30
2018-03-28T19:55:04.770Z,90.20
2018-03-28T19:58:27.687Z,90.90
2018-03-28T20:01:50.532Z,90.60
2018-03-28T20:05:13.450Z,90.30
2018-03-28T20:08:36.299Z,90.80
2018-03-28T20:11:59.178Z,90.20
2018-03-28T20:15:22.869Z,90.10
2018-03-28T20:18:45.710Z,90.10
2018-03-28T20:22:08.601Z,90.40
2018-03-28T20:25:32.230Z,90.60
2018-03-28T20:28:55.136Z,90.50
2018-03-28T20:32:18.045Z,90.40
2018-03-28T20:35:40.910Z,92.50
2018-03-28T20:39:03.844Z,90.90
2018-03-28T20:42:27.460Z,91.90
2018-03-28T20:45:50.342Z,92.00
2018-03-28T20:49:13.953Z,91.60
2018-03-28T20:52:36.824Z,91.50
2018-03-28T20:55:59.723Z,91.30
2018-03-28T20:59:22.687Z,91.00
2018-03-28T21:02:46.318Z,91.60
2018-03-28T21:06:09.141Z,91.30
2018-03-28T21:09:32.018Z,91.60
2018-03-28T21:12:54.912Z,90.90
2018-03-28T21:16:17.758Z,91.10
2018-03-28T21:19:41.011Z,90.70
2018-03-28T21:23:04.636Z,91.70
2018-03-28T21:26:27.467Z,91.70
2018-03-28T21:29:50.346Z,89.70
2018-03-28T21:33:14.023Z,89.40
2018-03-28T21:36:36.897Z,89.40
2018-03-28T21:39:59.752Z,87.90
2018-03-28T21:43:22.658Z,88.00
2018-03-28T21:46:45.698Z,86.00
2018-03-28T21:50:09.300Z,87.80
2018-03-28T21:53:32.186Z,87.60
2018-03-28T21:56:55.234Z,86.50
2018-03-28T22:00:18.934Z,86.60
2018-03-28T22:03:42.794Z,86.30
2018-03-28T22:07:05.687Z,87.50
2018-03-28T22:10:29.290Z,85.70
2018-03-28T22:13:52.354Z,85.60
2018-03-28T22:17:15.205Z,87.80
2018-03-28T22:20:38.106Z,85.60
2018-03-28T22:24:01.868Z,86.70
2018-03-28T22:27:24.765Z,86.60
2018-03-28T22:30:47.667Z,87.30
2018-03-28T22:34:10.540Z,89.50
2018-03-28T22:37:33.399Z,90.10
2018-03-28T22:40:56.237Z,90.00
2018-03-28T22:44:19.114Z,90.20
2018-03-28T22:47:42.728Z,90.50
2018-03-28T22:51:05.756Z,90.50
2018-03-28T22:54:28.557Z,91.20
2018-03-28T22:57:51.425Z,91.10
2018-03-28T23:01:14.322Z,90.90
2018-03-28T23:04:37.190Z,90.00
2018-03-28T23:08:00.036Z,88.60
2018-03-28T23:11:23.027Z,90.20
2018-03-28T23:14:45.982Z,88.60
2018-03-28T23:18:09.596Z,90.10
2018-03-28T23:21:32.450Z,90.00
2018-03-28T23:24:55.291Z,90.00
2018-03-28T23:28:18.124Z,90.10
2018-03-28T23:31:40.976Z,90.20
2018-03-28T23:35:03.849Z,89.80
2018-03-28T23:38:26.681Z,90.70
2018-03-28T23:41:49.536Z,90.50
2018-03-28T23:45:12.867Z,90.80
2018-03-28T23:48:35.714Z,90.80
2018-03-28T23:51:58.575Z,90.30
2018-03-28T23:55:21.464Z,91.10
2018-03-28T23:58:45.068Z,91.20
